Achico, Argentina

2:03 PM ART on December 04, 2016 (GMT -0300)
Aviador Carlos Campos (Neuquen) | | Change Station

Elev 2569 ft 40.08 °S, 71.14 °W | Updated 48 days ago

Partly Cloudy
Partly Cloudy
55 °F
Feels Like 55 °F
N
6
Wind Variable Wind from SSW

Today
High -- | Low -- °F
--% Chance of Precip.
Yesterday
High -- | Low -- °F
Precip. -- in
Pressure 29.68 in
Visibility 6.2 miles
Clouds Mostly Cloudy 4500 ft
Few 5000 ft
Dew Point 46 °F
Humidity 72%
Rainfall 0.00 in
Snow Depth Not available.
6:09 AM 9:01 PM
Waxing Crescent, 24% visible
SPECI SAZY 161720Z 20005KT 9999 VCTS BKN045 FEW050CB 13/08 Q1005
Pressure 29.68 in
Visibility 6.2 miles
Clouds Mostly Cloudy 4500 ft
Few 5000 ft
Dew Point 46 °F
Humidity 72%
Rainfall 0.00 in
Snow Depth Not available.
6:09 AM 9:01 PM
Waxing Crescent, 24% visible
SPECI SAZY 161720Z 20005KT 9999 VCTS BKN045 FEW050CB 13/08 Q1005

10-Day Weather Forecast

No radar image for this location.
×

Almanac

Astronomy

Dec. 04, 2016 Rise Set
Actual Time
Civil Twilight
Nautical Twilight
Astronomical Twilight
Moon
Length of Visible Light
Length of Day
Tomorrow will be .
, % of the Moon is Illuminated

Today's Extremes

Country Highs Country Lows

Community

WunderPhotos

Upload Photos

1,955,630 photos uploaded!

WunderBlog® & News

Nearby

Air Quality

  Air Quality AQ Index Pollutant
Not available.

Snow Depth

Station Depth Elevation

Earthquake Activity

City Distance Mag. Time & Date
Minimum magnitude displayed is 2.5.

Coastal Water Temperatures

Place Temperature

Stations

Nearby Weather Stations

Station Location Temp. Windchill Dew Point Humidity Wind Precip. Elev Updated Type